Ivanka — T8A2606 — position and weather

sailwx.info

Track history (hours):
 
Tides and Currents Weather Stations Pressure Air Temp Water Temp Dewpoint Dewpoint Depression Visibility Wind Speed Wind Dir Waves Ship Positions

Ivanka

Last reported at 2018-Feb-13 03:34 UTC. Time now 2018-Feb-19 08:27 UTC.
Position N 37°24' E 025°55'.

Length 98 m; draft 5.9 m.

Type: Cargo ship. MMSI: 511520000.

Date/timePositionNaut miles runAvg speedWind from/ knotsBaromVisibWave heightAir tempDewpointWater temp
2018-Feb-13 03:34N 37°24' E 025°55'110.8
2018-Feb-13 03:30N 37°25' E 025°55'510.6
2018-Feb-13 03:00N 37°30' E 025°53'610.6
2018-Feb-13 02:28N 37°36' E 025°51'234 8.7
2018-Feb-11 23:44N 40°53' E 028°33'3 9.7
2018-Feb-11 23:24N 40°53' E 028°37'5 9.1
2018-Feb-11 22:53N 40°53' E 028°44'4 8.1
2018-Feb-11 22:23N 40°49' E 028°45'0 0.3
2018-Feb-11 21:54N 40°49' E 028°45'1 1.3
2018-Feb-11 21:20N 40°50' E 028°46'3 7.5
2018-Feb-11 21:00N 40°52' E 028°48'3 5.9
2018-Feb-11 20:30N 40°55' E 028°49'5 7.7
2018-Feb-11 19:53N 40°56' E 028°55'3 8.1
2018-Feb-11 19:30N 40°58' E 028°58'415 8.4
2018-Feb-09 18:01N 45°09' E 036°31'2 0.1
2018-Feb-08 01:06N 45°11' E 036°32'0 0.0
2018-Feb-08 00:57N 45°11' E 036°32'0 0.0
2018-Feb-08 00:30N 45°11' E 036°32'0 0.0
2018-Feb-08 00:00N 45°11' E 036°32'0 0.0
2018-Feb-07 22:39N 45°11' E 036°32'0 0.0
2018-Feb-07 22:30N 45°11' E 036°32'0 0.0
2018-Feb-07 21:36N 45°11' E 036°32'0 0.0
2018-Feb-07 09:30N 45°11' E 036°32'0 0.0
2018-Feb-07 09:00N 45°11' E 036°32'0 0.0
2018-Feb-07 08:30N 45°11' E 036°33'0 0.0
2018-Feb-07 08:00N 45°11' E 036°32'0 0.0
2018-Feb-07 07:30N 45°11' E 036°32'0 0.0
2018-Feb-07 07:00N 45°11' E 036°32'0 0.0
2018-Feb-07 06:27N 45°11' E 036°33'0 0.0
2018-Feb-07 06:00N 45°11' E 036°33'0 0.0
2018-Feb-07 05:30N 45°11' E 036°33'0 0.0
2018-Feb-07 05:00N 45°11' E 036°33'0 0.0
2018-Feb-07 04:30N 45°11' E 036°33'0 0.0
2018-Feb-07 03:45N 45°11' E 036°33'0 0.0
2018-Feb-07 03:27N 45°11' E 036°33'0 0.0
2018-Feb-07 03:00N 45°11' E 036°33'0 0.0
2018-Feb-07 02:27N 45°11' E 036°33'0 0.0
2018-Feb-07 02:00N 45°11' E 036°33'0 0.0
2018-Feb-07 01:21N 45°11' E 036°33'0 0.0
2018-Feb-07 01:00N 45°11' E 036°33'0 0.0
2018-Feb-07 00:30N 45°11' E 036°33'0 0.0
2018-Feb-07 00:00N 45°11' E 036°33'0 0.0
2018-Feb-06 23:30N 45°11' E 036°33'0 0.0
2018-Feb-06 22:54N 45°11' E 036°33'0 0.0
2018-Feb-06 22:30N 45°11' E 036°33'0 0.0
2018-Feb-06 22:00N 45°11' E 036°33'0 0.0
2018-Feb-06 21:27N 45°11' E 036°33'0 0.0
2018-Feb-06 21:00N 45°11' E 036°33'0 0.0
2018-Feb-06 20:27N 45°11' E 036°33'0 0.0
2018-Feb-06 20:00N 45°11' E 036°33'0 0.0
2018-Feb-06 19:30N 45°11' E 036°33'0 0.0
2018-Feb-06 19:00N 45°11' E 036°33'0 0.0
2018-Feb-06 18:30N 45°11' E 036°33'0 0.0
2018-Feb-06 18:00N 45°11' E 036°33'0 0.0
2018-Feb-06 17:30N 45°11' E 036°33'0 0.0
2018-Feb-06 16:57N 45°11' E 036°33'0 0.0
2018-Feb-06 16:30N 45°11' E 036°33'0 0.0
2018-Feb-06 16:00N 45°11' E 036°33'0 0.0
2018-Feb-06 15:30N 45°11' E 036°33'0 0.0
2018-Feb-06 15:00N 45°11' E 036°33'0 0.0
2018-Feb-06 14:27N 45°11' E 036°33'0 0.0
2018-Feb-06 14:00N 45°11' E 036°33'0 0.0
2018-Feb-06 13:27N 45°11' E 036°33'0 0.0
2018-Feb-06 13:00N 45°11' E 036°33'0 0.0
2018-Feb-06 12:30N 45°11' E 036°33'0 0.0
2018-Feb-06 12:00N 45°11' E 036°33'0 0.0
2018-Feb-06 11:24N 45°11' E 036°33'0 0.0
2018-Feb-06 11:00N 45°11' E 036°33'0 0.0
2018-Feb-06 10:27N 45°11' E 036°33'0 0.0
2018-Feb-06 10:00N 45°11' E 036°33'0 0.0
2018-Feb-06 09:30N 45°11' E 036°33'0 0.0
2018-Feb-06 09:00N 45°11' E 036°33'0 0.1
2018-Feb-06 08:30N 45°11' E 036°33'0 0.0
2018-Feb-06 08:00N 45°11' E 036°33'0 0.0
2018-Feb-06 07:18N 45°11' E 036°33'0 0.0
2018-Feb-06 07:00N 45°11' E 036°33'0 0.0
2018-Feb-06 06:30N 45°11' E 036°33'0 0.0
2018-Feb-06 06:00N 45°11' E 036°33'0 0.0
2018-Feb-06 05:30N 45°11' E 036°33'0 0.0
2018-Feb-06 05:00N 45°11' E 036°33'0 0.0
2018-Feb-06 04:21N 45°11' E 036°33'0 0.0
2018-Feb-06 02:27N 45°11' E 036°33'0 0.0
2018-Feb-06 02:00N 45°11' E 036°33'0 0.1
2018-Feb-06 01:30N 45°11' E 036°33'0 0.0
2018-Feb-06 01:00N 45°11' E 036°33'0 0.0
2018-Feb-06 00:27N 45°11' E 036°33'0 0.0
2018-Feb-05 23:03N 45°11' E 036°33'0 0.1
2018-Feb-05 22:33N 45°11' E 036°33'0 0.0
2018-Feb-05 22:27N 45°11' E 036°33'0 0.0
2018-Feb-05 22:00N 45°11' E 036°33'0 0.0
2018-Feb-05 21:30N 45°11' E 036°33'0 0.0
2018-Feb-05 21:00N 45°11' E 036°33'0 0.0
2018-Feb-05 20:24N 45°11' E 036°33'0 0.0
2018-Feb-05 19:15N 45°11' E 036°33'0 0.0
2018-Feb-05 18:54N 45°11' E 036°33'0 0.0
2018-Feb-05 18:30N 45°11' E 036°33'0 0.0
2018-Feb-05 18:00N 45°11' E 036°33'0 0.0
2018-Feb-05 17:30N 45°11' E 036°33'0 0.0
2018-Feb-05 16:48N 45°11' E 036°33'0 0.0
2018-Feb-05 16:30N 45°11' E 036°33'0 0.0
2018-Feb-05 16:00N 45°11' E 036°33'0 0.0
2018-Feb-05 15:30N 45°11' E 036°33'0 0.0
2018-Feb-05 15:00N 45°11' E 036°33'0 0.0
2018-Feb-05 14:30N 45°11' E 036°33'0 0.0
2018-Feb-05 14:00N 45°11' E 036°33'0 0.0
2018-Feb-05 13:24N 45°11' E 036°33'0 0.0
2018-Feb-05 12:57N 45°11' E 036°33'0 0.0
2018-Feb-05 12:30N 45°11' E 036°33'0 0.0
2018-Feb-05 11:57N 45°11' E 036°33'0 0.0
2018-Feb-05 11:30N 45°11' E 036°33'0 0.0
2018-Feb-05 11:00N 45°11' E 036°33'0 0.0
2018-Feb-05 10:27N 45°11' E 036°33'0 0.0
2018-Feb-05 09:57N 45°11' E 036°33'0 0.0
2018-Feb-05 09:24N 45°11' E 036°33'0 0.0
2018-Feb-05 09:00N 45°11' E 036°33'0 0.0
2018-Feb-05 08:30N 45°11' E 036°33'0 0.0
2018-Feb-05 08:00N 45°11' E 036°33'0 0.0
2018-Feb-05 07:30N 45°11' E 036°33'0 0.0
2018-Feb-05 06:57N 45°11' E 036°33'0 0.0
2018-Feb-05 06:30N 45°11' E 036°33'0 0.0
2018-Feb-05 05:24N 45°11' E 036°33'0 0.0
2018-Feb-05 03:03N 45°11' E 036°33'0 0.0
2018-Feb-05 03:00N 45°11' E 036°33'0 0.0
2018-Feb-05 02:30N 45°11' E 036°33'0 0.0
2018-Feb-05 01:30N 45°11' E 036°33'0 0.0
2018-Feb-05 00:45N 45°11' E 036°33'0 0.0
2018-Feb-05 00:15N 45°11' E 036°33'0 0.0
2018-Feb-05 00:00N 45°11' E 036°33'0 0.0
2018-Feb-04 22:30N 45°11' E 036°33'0 0.1
2018-Feb-04 21:54N 45°11' E 036°33'0 0.1
2018-Feb-04 21:30N 45°11' E 036°33'0 0.0
2018-Feb-04 21:00N 45°11' E 036°33'0 0.0
2018-Feb-04 19:57N 45°11' E 036°33'0 0.0
2018-Feb-04 19:30N 45°11' E 036°33'0 0.1
2018-Feb-04 19:00N 45°11' E 036°33'0 0.0
2018-Feb-04 18:30N 45°11' E 036°33'0 0.1
2018-Feb-04 18:00N 45°11' E 036°33'0 0.0
2018-Feb-04 17:30N 45°11' E 036°33'0 0.0
2018-Feb-04 15:30N 45°11' E 036°33'0 0.0
2018-Feb-04 14:57N 45°11' E 036°33'0 0.0
2018-Feb-04 14:30N 45°11' E 036°33'0 0.0
2018-Feb-04 14:00N 45°11' E 036°33'0 0.0
2018-Feb-04 13:30N 45°11' E 036°33'0 0.0
2018-Feb-04 13:00N 45°11' E 036°33'0 0.0
2018-Feb-04 12:30N 45°11' E 036°33'0 0.0
2018-Feb-04 12:00N 45°11' E 036°33'0 0.0
2018-Feb-04 11:30N 45°11' E 036°33'0 0.0
2018-Feb-04 10:00N 45°11' E 036°33'0 0.0
2018-Feb-04 09:00N 45°11' E 036°33'0 0.0
2018-Feb-04 08:30N 45°11' E 036°33'0 0.0
2018-Feb-04 08:00N 45°11' E 036°33'0 0.0
2018-Feb-04 07:30N 45°11' E 036°33'0 0.0
2018-Feb-04 07:00N 45°11' E 036°32'0 0.0
2018-Feb-04 06:30N 45°11' E 036°33'0 0.0
2018-Feb-04 06:00N 45°11' E 036°32'0 0.0
2018-Feb-04 05:30N 45°11' E 036°32'0 0.0
2018-Feb-04 05:00N 45°11' E 036°33'0 0.0
2018-Feb-04 04:30N 45°11' E 036°33'0 0.0
2018-Feb-04 04:00N 45°11' E 036°33'0 0.0
2018-Feb-04 03:30N 45°11' E 036°32'0 0.0
2018-Feb-04 02:57N 45°11' E 036°33'0 0.0
2018-Feb-04 02:30N 45°11' E 036°33'0 0.0
2018-Feb-04 02:00N 45°11' E 036°33'0 0.0
2018-Feb-04 01:30N 45°11' E 036°32'0 0.0
2018-Feb-04 01:00N 45°11' E 036°32'0 0.0
2018-Feb-04 00:30N 45°11' E 036°32'0 0.0
2018-Feb-04 00:00N 45°11' E 036°32'0 0.0
2018-Feb-03 23:27N 45°11' E 036°32'0 0.0
2018-Feb-03 23:00N 45°11' E 036°33'0 0.0
2018-Feb-03 22:30N 45°11' E 036°33'0 0.0
2018-Feb-03 22:00N 45°11' E 036°33'0 0.0
2018-Feb-03 21:30N 45°11' E 036°32'0 0.0
2018-Feb-03 21:00N 45°11' E 036°32'0 0.0
2018-Feb-03 20:27N 45°11' E 036°33'0 0.0
2018-Feb-03 20:00N 45°11' E 036°32'0 0.0
2018-Feb-03 18:30N 45°11' E 036°32'0 0.0
2018-Feb-03 18:00N 45°11' E 036°32'0 0.0
2018-Feb-03 17:30N 45°11' E 036°32'0 0.0
2018-Feb-03 17:00N 45°11' E 036°32'0 0.0
2018-Feb-03 16:00N 45°11' E 036°32'0 0.0
2018-Feb-03 15:30N 45°11' E 036°32'0 0.0
2018-Feb-03 14:33N 45°11' E 036°32'0 0.1
2018-Feb-03 14:30N 45°11' E 036°32'0 0.0
2018-Feb-03 14:00N 45°11' E 036°32'0 0.0
2018-Feb-03 13:30N 45°11' E 036°33'0 0.0
2018-Feb-03 13:00N 45°11' E 036°32'0 0.0
2018-Feb-03 12:24N 45°11' E 036°33'0 0.0
2018-Feb-03 12:00N 45°11' E 036°33'0 0.0
2018-Feb-03 11:30N 45°11' E 036°33'0 0.0
2018-Feb-03 11:00N 45°11' E 036°33'0 0.0
2018-Feb-03 10:30N 45°11' E 036°33'0 0.0
2018-Feb-03 10:00N 45°11' E 036°33'0 0.0
2018-Feb-03 09:30N 45°11' E 036°33'0 0.0
2018-Feb-03 09:00N 45°11' E 036°33'0 0.0
2018-Feb-03 08:30N 45°11' E 036°33'0 0.0
2018-Feb-03 08:00N 45°11' E 036°33'0 0.0
2018-Feb-03 06:30N 45°11' E 036°33'0 0.0
2018-Feb-03 05:57N 45°11' E 036°33'0 0.0
2018-Feb-03 05:30N 45°11' E 036°33'0 0.0
2018-Feb-03 05:00N 45°11' E 036°33'0 0.0
2018-Feb-03 04:00N 45°11' E 036°33'  
Track history (hours):
 
Tides and Currents Weather Stations Pressure Air Temp Water Temp Dewpoint Dewpoint Depression Visibility Wind Speed Wind Dir Waves Ship Positions

Ivanka

Last reported at 2018-Feb-13 03:34 UTC. Time now 2018-Feb-19 08:27 UTC.
Position N 37°24' E 025°55'.

Length 98 m; draft 5.9 m.

Type: Cargo ship. MMSI: 511520000.

Date/timePositionNaut miles runAvg speedWind from/ knotsBaromVisibWave heightAir tempDewpointWater temp
2018-Feb-13 03:34N 37°24' E 025°55'110.8
2018-Feb-13 03:30N 37°25' E 025°55'510.6
2018-Feb-13 03:00N 37°30' E 025°53'610.6
2018-Feb-13 02:28N 37°36' E 025°51'234 8.7
2018-Feb-11 23:44N 40°53' E 028°33'3 9.7
2018-Feb-11 23:24N 40°53' E 028°37'5 9.1
2018-Feb-11 22:53N 40°53' E 028°44'4 8.1
2018-Feb-11 22:23N 40°49' E 028°45'0 0.3
2018-Feb-11 21:54N 40°49' E 028°45'1 1.3
2018-Feb-11 21:20N 40°50' E 028°46'3 7.5
2018-Feb-11 21:00N 40°52' E 028°48'3 5.9
2018-Feb-11 20:30N 40°55' E 028°49'5 7.7
2018-Feb-11 19:53N 40°56' E 028°55'3 8.1
2018-Feb-11 19:30N 40°58' E 028°58'415 8.4
2018-Feb-09 18:01N 45°09' E 036°31'2 0.1
2018-Feb-08 01:06N 45°11' E 036°32'0 0.0
2018-Feb-08 00:57N 45°11' E 036°32'0 0.0
2018-Feb-08 00:30N 45°11' E 036°32'0 0.0
2018-Feb-08 00:00N 45°11' E 036°32'0 0.0
2018-Feb-07 22:39N 45°11' E 036°32'0 0.0
2018-Feb-07 22:30N 45°11' E 036°32'0 0.0
2018-Feb-07 21:36N 45°11' E 036°32'0 0.0
2018-Feb-07 09:30N 45°11' E 036°32'0 0.0
2018-Feb-07 09:00N 45°11' E 036°32'0 0.0
2018-Feb-07 08:30N 45°11' E 036°33'0 0.0
2018-Feb-07 08:00N 45°11' E 036°32'0 0.0
2018-Feb-07 07:30N 45°11' E 036°32'0 0.0
2018-Feb-07 07:00N 45°11' E 036°32'0 0.0
2018-Feb-07 06:27N 45°11' E 036°33'0 0.0
2018-Feb-07 06:00N 45°11' E 036°33'0 0.0
2018-Feb-07 05:30N 45°11' E 036°33'0 0.0
2018-Feb-07 05:00N 45°11' E 036°33'0 0.0
2018-Feb-07 04:30N 45°11' E 036°33'0 0.0
2018-Feb-07 03:45N 45°11' E 036°33'0 0.0
2018-Feb-07 03:27N 45°11' E 036°33'0 0.0
2018-Feb-07 03:00N 45°11' E 036°33'0 0.0
2018-Feb-07 02:27N 45°11' E 036°33'0 0.0
2018-Feb-07 02:00N 45°11' E 036°33'0 0.0
2018-Feb-07 01:21N 45°11' E 036°33'0 0.0
2018-Feb-07 01:00N 45°11' E 036°33'0 0.0
2018-Feb-07 00:30N 45°11' E 036°33'0 0.0
2018-Feb-07 00:00N 45°11' E 036°33'0 0.0
2018-Feb-06 23:30N 45°11' E 036°33'0 0.0
2018-Feb-06 22:54N 45°11' E 036°33'0 0.0
2018-Feb-06 22:30N 45°11' E 036°33'0 0.0
2018-Feb-06 22:00N 45°11' E 036°33'0 0.0
2018-Feb-06 21:27N 45°11' E 036°33'0 0.0
2018-Feb-06 21:00N 45°11' E 036°33'0 0.0
2018-Feb-06 20:27N 45°11' E 036°33'0 0.0
2018-Feb-06 20:00N 45°11' E 036°33'0 0.0
2018-Feb-06 19:30N 45°11' E 036°33'0 0.0
2018-Feb-06 19:00N 45°11' E 036°33'0 0.0
2018-Feb-06 18:30N 45°11' E 036°33'0 0.0
2018-Feb-06 18:00N 45°11' E 036°33'0 0.0
2018-Feb-06 17:30N 45°11' E 036°33'0 0.0
2018-Feb-06 16:57N 45°11' E 036°33'0 0.0
2018-Feb-06 16:30N 45°11' E 036°33'0 0.0
2018-Feb-06 16:00N 45°11' E 036°33'0 0.0
2018-Feb-06 15:30N 45°11' E 036°33'0 0.0
2018-Feb-06 15:00N 45°11' E 036°33'0 0.0
2018-Feb-06 14:27N 45°11' E 036°33'0 0.0
2018-Feb-06 14:00N 45°11' E 036°33'0 0.0
2018-Feb-06 13:27N 45°11' E 036°33'0 0.0
2018-Feb-06 13:00N 45°11' E 036°33'0 0.0
2018-Feb-06 12:30N 45°11' E 036°33'0 0.0
2018-Feb-06 12:00N 45°11' E 036°33'0 0.0
2018-Feb-06 11:24N 45°11' E 036°33'0 0.0
2018-Feb-06 11:00N 45°11' E 036°33'0 0.0
2018-Feb-06 10:27N 45°11' E 036°33'0 0.0
2018-Feb-06 10:00N 45°11' E 036°33'0 0.0
2018-Feb-06 09:30N 45°11' E 036°33'0 0.0
2018-Feb-06 09:00N 45°11' E 036°33'0 0.1
2018-Feb-06 08:30N 45°11' E 036°33'0 0.0
2018-Feb-06 08:00N 45°11' E 036°33'0 0.0
2018-Feb-06 07:18N 45°11' E 036°33'0 0.0
2018-Feb-06 07:00N 45°11' E 036°33'0 0.0
2018-Feb-06 06:30N 45°11' E 036°33'0 0.0
2018-Feb-06 06:00N 45°11' E 036°33'0 0.0
2018-Feb-06 05:30N 45°11' E 036°33'0 0.0
2018-Feb-06 05:00N 45°11' E 036°33'0 0.0
2018-Feb-06 04:21N 45°11' E 036°33'0 0.0
2018-Feb-06 02:27N 45°11' E 036°33'0 0.0
2018-Feb-06 02:00N 45°11' E 036°33'0 0.1
2018-Feb-06 01:30N 45°11' E 036°33'0 0.0
2018-Feb-06 01:00N 45°11' E 036°33'0 0.0
2018-Feb-06 00:27N 45°11' E 036°33'0 0.0
2018-Feb-05 23:03N 45°11' E 036°33'0 0.1
2018-Feb-05 22:33N 45°11' E 036°33'0 0.0
2018-Feb-05 22:27N 45°11' E 036°33'0 0.0
2018-Feb-05 22:00N 45°11' E 036°33'0 0.0
2018-Feb-05 21:30N 45°11' E 036°33'0 0.0
2018-Feb-05 21:00N 45°11' E 036°33'0 0.0
2018-Feb-05 20:24N 45°11' E 036°33'0 0.0
2018-Feb-05 19:15N 45°11' E 036°33'0 0.0
2018-Feb-05 18:54N 45°11' E 036°33'0 0.0
2018-Feb-05 18:30N 45°11' E 036°33'0 0.0
2018-Feb-05 18:00N 45°11' E 036°33'0 0.0
2018-Feb-05 17:30N 45°11' E 036°33'0 0.0
2018-Feb-05 16:48N 45°11' E 036°33'0 0.0
2018-Feb-05 16:30N 45°11' E 036°33'0 0.0
2018-Feb-05 16:00N 45°11' E 036°33'0 0.0
2018-Feb-05 15:30N 45°11' E 036°33'0 0.0
2018-Feb-05 15:00N 45°11' E 036°33'0 0.0
2018-Feb-05 14:30N 45°11' E 036°33'0 0.0
2018-Feb-05 14:00N 45°11' E 036°33'0 0.0
2018-Feb-05 13:24N 45°11' E 036°33'0 0.0
2018-Feb-05 12:57N 45°11' E 036°33'0 0.0
2018-Feb-05 12:30N 45°11' E 036°33'0 0.0
2018-Feb-05 11:57N 45°11' E 036°33'0 0.0
2018-Feb-05 11:30N 45°11' E 036°33'0 0.0
2018-Feb-05 11:00N 45°11' E 036°33'0 0.0
2018-Feb-05 10:27N 45°11' E 036°33'0 0.0
2018-Feb-05 09:57N 45°11' E 036°33'0 0.0
2018-Feb-05 09:24N 45°11' E 036°33'0 0.0
2018-Feb-05 09:00N 45°11' E 036°33'0 0.0
2018-Feb-05 08:30N 45°11' E 036°33'0 0.0
2018-Feb-05 08:00N 45°11' E 036°33'0 0.0
2018-Feb-05 07:30N 45°11' E 036°33'0 0.0
2018-Feb-05 06:57N 45°11' E 036°33'0 0.0
2018-Feb-05 06:30N 45°11' E 036°33'0 0.0
2018-Feb-05 05:24N 45°11' E 036°33'0 0.0
2018-Feb-05 03:03N 45°11' E 036°33'0 0.0
2018-Feb-05 03:00N 45°11' E 036°33'0 0.0
2018-Feb-05 02:30N 45°11' E 036°33'0 0.0
2018-Feb-05 01:30N 45°11' E 036°33'0 0.0
2018-Feb-05 00:45N 45°11' E 036°33'0 0.0
2018-Feb-05 00:15N 45°11' E 036°33'0 0.0
2018-Feb-05 00:00N 45°11' E 036°33'0 0.0
2018-Feb-04 22:30N 45°11' E 036°33'0 0.1
2018-Feb-04 21:54N 45°11' E 036°33'0 0.1
2018-Feb-04 21:30N 45°11' E 036°33'0 0.0
2018-Feb-04 21:00N 45°11' E 036°33'0 0.0
2018-Feb-04 19:57N 45°11' E 036°33'0 0.0
2018-Feb-04 19:30N 45°11' E 036°33'0 0.1
2018-Feb-04 19:00N 45°11' E 036°33'0 0.0
2018-Feb-04 18:30N 45°11' E 036°33'0 0.1
2018-Feb-04 18:00N 45°11' E 036°33'0 0.0
2018-Feb-04 17:30N 45°11' E 036°33'0 0.0
2018-Feb-04 15:30N 45°11' E 036°33'0 0.0
2018-Feb-04 14:57N 45°11' E 036°33'0 0.0
2018-Feb-04 14:30N 45°11' E 036°33'0 0.0
2018-Feb-04 14:00N 45°11' E 036°33'0 0.0
2018-Feb-04 13:30N 45°11' E 036°33'0 0.0
2018-Feb-04 13:00N 45°11' E 036°33'0 0.0
2018-Feb-04 12:30N 45°11' E 036°33'0 0.0
2018-Feb-04 12:00N 45°11' E 036°33'0 0.0
2018-Feb-04 11:30N 45°11' E 036°33'0 0.0
2018-Feb-04 10:00N 45°11' E 036°33'0 0.0
2018-Feb-04 09:00N 45°11' E 036°33'0 0.0
2018-Feb-04 08:30N 45°11' E 036°33'0 0.0
2018-Feb-04 08:00N 45°11' E 036°33'0 0.0
2018-Feb-04 07:30N 45°11' E 036°33'0 0.0
2018-Feb-04 07:00N 45°11' E 036°32'0 0.0
2018-Feb-04 06:30N 45°11' E 036°33'0 0.0
2018-Feb-04 06:00N 45°11' E 036°32'0 0.0
2018-Feb-04 05:30N 45°11' E 036°32'0 0.0
2018-Feb-04 05:00N 45°11' E 036°33'0 0.0
2018-Feb-04 04:30N 45°11' E 036°33'0 0.0
2018-Feb-04 04:00N 45°11' E 036°33'0 0.0
2018-Feb-04 03:30N 45°11' E 036°32'0 0.0
2018-Feb-04 02:57N 45°11' E 036°33'0 0.0
2018-Feb-04 02:30N 45°11' E 036°33'0 0.0
2018-Feb-04 02:00N 45°11' E 036°33'0 0.0
2018-Feb-04 01:30N 45°11' E 036°32'0 0.0
2018-Feb-04 01:00N 45°11' E 036°32'0 0.0
2018-Feb-04 00:30N 45°11' E 036°32'0 0.0
2018-Feb-04 00:00N 45°11' E 036°32'0 0.0
2018-Feb-03 23:27N 45°11' E 036°32'0 0.0
2018-Feb-03 23:00N 45°11' E 036°33'0 0.0
2018-Feb-03 22:30N 45°11' E 036°33'0 0.0
2018-Feb-03 22:00N 45°11' E 036°33'0 0.0
2018-Feb-03 21:30N 45°11' E 036°32'0 0.0
2018-Feb-03 21:00N 45°11' E 036°32'0 0.0
2018-Feb-03 20:27N 45°11' E 036°33'0 0.0
2018-Feb-03 20:00N 45°11' E 036°32'0 0.0
2018-Feb-03 18:30N 45°11' E 036°32'0 0.0
2018-Feb-03 18:00N 45°11' E 036°32'0 0.0
2018-Feb-03 17:30N 45°11' E 036°32'0 0.0
2018-Feb-03 17:00N 45°11' E 036°32'0 0.0
2018-Feb-03 16:00N 45°11' E 036°32'0 0.0
2018-Feb-03 15:30N 45°11' E 036°32'0 0.0
2018-Feb-03 14:33N 45°11' E 036°32'0 0.1
2018-Feb-03 14:30N 45°11' E 036°32'0 0.0
2018-Feb-03 14:00N 45°11' E 036°32'0 0.0
2018-Feb-03 13:30N 45°11' E 036°33'0 0.0
2018-Feb-03 13:00N 45°11' E 036°32'0 0.0
2018-Feb-03 12:24N 45°11' E 036°33'0 0.0
2018-Feb-03 12:00N 45°11' E 036°33'0 0.0
2018-Feb-03 11:30N 45°11' E 036°33'0 0.0
2018-Feb-03 11:00N 45°11' E 036°33'0 0.0
2018-Feb-03 10:30N 45°11' E 036°33'0 0.0
2018-Feb-03 10:00N 45°11' E 036°33'0 0.0
2018-Feb-03 09:30N 45°11' E 036°33'0 0.0
2018-Feb-03 09:00N 45°11' E 036°33'0 0.0
2018-Feb-03 08:30N 45°11' E 036°33'0 0.0
2018-Feb-03 08:00N 45°11' E 036°33'0 0.0
2018-Feb-03 06:30N 45°11' E 036°33'0 0.0
2018-Feb-03 05:57N 45°11' E 036°33'0 0.0
2018-Feb-03 05:30N 45°11' E 036°33'0 0.0
2018-Feb-03 05:00N 45°11' E 036°33'0 0.0
2018-Feb-03 04:00N 45°11' E 036°33'  

Dump ship's entire track history